Time,TemperatureF,DewpointF,PressureIn,WindDirection,WindDirectionDegrees,WindSpeedMPH,WindSpeedGustMPH,Humidity,HourlyPrecipIn,Conditions,Clouds,dailyrainin,SoftwareType,DateUTC
2013-10-07 00:03:00,72.9,41.3,29.53,SSW,208,0.0,0.0,32,0.00,CLR,,0.00,WeatherDisplay:10.37,2013-10-06 13:03:00,
2013-10-07 00:08:00,72.7,41.1,29.54,SE,139,0.0,2.0,32,0.00,CLR,,0.00,WeatherDisplay:10.37,2013-10-06 13:08:00,
2013-10-07 00:13:00,72.3,40.8,29.54,SSE,155,0.0,1.0,32,0.00,CLR,,0.00,WeatherDisplay:10.37,2013-10-06 13:13:00,
2013-10-07 00:18:00,72.1,41.4,29.54,South,181,0.0,0.0,33,0.00,CLR,,0.00,WeatherDisplay:10.37,2013-10-06 13:18:00,
2013-10-07 00:23:00,71.9,41.2,29.55,South,189,0.0,2.0,33,0.00,CLR,,0.00,WeatherDisplay:10.37,2013-10-06 13:23:00,
2013-10-07 00:28:00,71.8,41.1,29.54,SSW,203,1.0,3.0,33,0.00,CLR,,0.00,WeatherDisplay:10.37,2013-10-06 13:28:00,
2013-10-07 00:33:00,71.8,41.1,29.54,SSW,205,0.0,2.0,33,0.00,CLR,,0.00,WeatherDisplay:10.37,2013-10-06 13:33:00,
2013-10-07 00:38:00,71.4,41.6,29.54,SW,216,0.0,0.0,34,0.00,CLR,,0.00,WeatherDisplay:10.37,2013-10-06 13:38:00,
2013-10-07 00:43:00,71.2,41.4,29.54,SW,218,0.0,1.0,34,0.00,CLR,,0.00,WeatherDisplay:10.37,2013-10-06 13:43:00,
2013-10-07 00:48:00,71.1,42.0,29.54,SSW,211,0.0,1.0,35,0.00,CLR,,0.00,WeatherDisplay:10.37,2013-10-06 13:48:00,
2013-10-07 00:53:00,70.9,41.9,29.54,SSW,203,0.0,0.0,35,0.00,CLR,,0.00,WeatherDisplay:10.37,2013-10-06 13:53:00,
2013-10-07 00:58:00,70.9,41.9,29.53,SSW,201,0.0,0.0,35,0.00,CLR,,0.00,WeatherDisplay:10.37,2013-10-06 13:58:00,
2013-10-07 01:03:00,70.7,41.7,29.53,SW,214,0.0,0.0,35,0.00,CLR,,0.00,WeatherDisplay:10.37,2013-10-06 14:03:00,
2013-10-07 01:08:00,70.5,41.5,29.54,WSW,240,0.0,0.0,35,0.00,CLR,,0.00,WeatherDisplay:10.37,2013-10-06 14:08:00,
2013-10-07 01:13:00,70.3,40.6,29.53,West,275,0.0,0.0,34,0.00,CLR,,0.00,WeatherDisplay:10.37,2013-10-06 14:13:00,
2013-10-07 01:18:00,70.3,41.4,29.53,NNW,334,0.0,0.0,35,0.00,CLR,,0.00,WeatherDisplay:10.37,2013-10-06 14:18:00,
2013-10-07 01:23:00,70.1,41.2,29.53,NNW,327,0.0,0.0,35,0.00,CLR,,0.00,WeatherDisplay:10.37,2013-10-06 14:23:00,
2013-10-07 01:28:00,69.8,41.7,29.53,WSW,241,0.0,0.0,36,0.00,CLR,,0.00,WeatherDisplay:10.37,2013-10-06 14:28:00,
2013-10-07 01:33:00,69.6,41.5,29.53,SSW,209,0.0,0.0,36,0.00,CLR,,0.00,WeatherDisplay:10.37,2013-10-06 14:33:00,
2013-10-07 01:38:00,69.5,41.4,29.53,SW,229,0.0,0.0,36,0.00,CLR,,0.00,WeatherDisplay:10.37,2013-10-06 14:38:00,
2013-10-07 01:43:00,69.4,41.3,29.52,West,278,0.0,0.0,36,0.00,CLR,,0.00,WeatherDisplay:10.37,2013-10-06 14:43:00,
2013-10-07 01:48:00,69.3,41.2,29.52,West,259,0.0,2.0,36,0.00,CLR,,0.00,WeatherDisplay:10.37,2013-10-06 14:48:00,
2013-10-07 01:53:00,69.1,41.7,29.52,SSW,199,0.0,0.0,37,0.00,CLR,,0.00,WeatherDisplay:10.37,2013-10-06 14:53:00,
2013-10-07 01:58:00,69.0,41.6,29.52,South,177,0.0,0.0,37,0.00,CLR,,0.00,WeatherDisplay:10.37,2013-10-06 14:58:00,
2013-10-07 02:03:00,68.7,41.4,29.52,South,185,0.0,0.0,37,0.00,CLR,,0.00,WeatherDisplay:10.37,2013-10-06 15:03:00,
2013-10-07 02:08:00,68.7,41.4,29.52,South,191,0.0,0.0,37,0.00,CLR,,0.00,WeatherDisplay:10.37,2013-10-06 15:08:00,
2013-10-07 02:13:00,68.5,41.2,29.52,SSW,194,0.0,0.0,37,0.00,CLR,,0.00,WeatherDisplay:10.37,2013-10-06 15:13:00,
2013-10-07 02:18:00,68.4,41.1,29.53,SSW,209,0.0,2.0,37,0.00,CLR,,0.00,WeatherDisplay:10.37,2013-10-06 15:18:00,
2013-10-07 02:23:00,68.2,40.9,29.53,WSW,239,0.0,0.0,37,0.00,CLR,,0.00,WeatherDisplay:10.37,2013-10-06 15:23:00,
2013-10-07 02:28:00,68.2,40.9,29.53,WNW,286,0.0,0.0,37,0.00,CLR,,0.00,WeatherDisplay:10.37,2013-10-06 15:28:00,
2013-10-07 02:33:00,68.4,41.1,29.53,NW,319,0.0,0.0,37,0.00,CLR,,0.00,WeatherDisplay:10.37,2013-10-06 15:33:00,
2013-10-07 02:38:00,68.2,40.9,29.53,WNW,290,0.0,0.0,37,0.00,CLR,,0.00,WeatherDisplay:10.37,2013-10-06 15:38:00,
2013-10-07 02:43:00,68.0,40.7,29.52,SW,236,0.0,1.0,37,0.00,CLR,,0.00,WeatherDisplay:10.37,2013-10-06 15:43:00,
2013-10-07 02:48:00,68.1,40.2,29.52,WSW,250,1.0,4.0,36,0.00,CLR,,0.00,WeatherDisplay:10.37,2013-10-06 15:48:00,
2013-10-07 02:53:00,68.2,40.9,29.53,North,4,0.0,0.0,37,0.00,CLR,,0.00,WeatherDisplay:10.37,2013-10-06 15:53:00,
2013-10-07 02:58:00,68.1,41.5,29.53,NE,45,0.0,0.0,38,0.00,CLR,,0.00,WeatherDisplay:10.37,2013-10-06 15:58:00,
2013-10-07 03:03:00,67.8,41.9,29.53,NE,45,0.0,0.0,39,0.00,CLR,,0.00,WeatherDisplay:10.37,2013-10-06 16:03:00,
2013-10-07 03:08:00,67.4,41.6,29.54,NNE,32,0.0,0.0,39,0.00,CLR,,0.00,WeatherDisplay:10.37,2013-10-06 16:08:00,
2013-10-07 03:13:00,66.9,41.8,29.54,SSW,211,1.0,2.0,40,0.00,CLR,,0.00,WeatherDisplay:10.37,2013-10-06 16:13:00,
2013-10-07 03:18:00,66.9,41.1,29.54,SSW,199,1.0,5.0,39,0.00,CLR,,0.00,WeatherDisplay:10.37,2013-10-06 16:18:00,
2013-10-07 03:23:00,67.1,40.7,29.54,SSW,210,3.0,6.0,38,0.00,CLR,,0.00,WeatherDisplay:10.37,2013-10-06 16:23:00,
2013-10-07 03:28:00,67.6,40.4,29.54,SSW,205,5.0,9.0,37,0.00,CLR,,0.00,WeatherDisplay:10.37,2013-10-06 16:28:00,
2013-10-07 03:33:00,67.8,41.3,29.56,South,180,5.0,10.0,38,0.00,CLR,,0.00,WeatherDisplay:10.37,2013-10-06 16:33:00,
2013-10-07 03:38:00,68.2,45.4,29.56,SSW,197,3.0,12.0,44,0.00,CLR,,0.00,WeatherDisplay:10.37,2013-10-06 16:38:00,
2013-10-07 03:43:00,68.2,48.8,29.56,SW,215,5.0,8.0,50,0.00,CLR,,0.00,WeatherDisplay:10.37,2013-10-06 16:43:00,
2013-10-07 03:48:00,68.2,50.4,29.56,SSW,208,6.0,10.0,53,0.00,CLR,,0.00,WeatherDisplay:10.37,2013-10-06 16:48:00,
2013-10-07 03:53:00,68.2,51.9,29.57,SSW,195,2.0,9.0,56,0.00,CLR,,0.00,WeatherDisplay:10.37,2013-10-06 16:53:00,
2013-10-07 03:58:00,68.2,52.8,29.57,SSW,196,2.0,8.0,58,0.00,CLR,,0.00,WeatherDisplay:10.37,2013-10-06 16:58:00,
2013-10-07 04:03:00,68.2,53.8,29.57,South,187,1.0,6.0,60,0.00,CLR,,0.00,WeatherDisplay:10.37,2013-10-06 17:03:00,
2013-10-07 04:08:00,68.3,54.7,29.57,SW,234,1.0,8.0,62,0.00,CLR,,0.00,WeatherDisplay:10.37,2013-10-06 17:08:00,
2013-10-07 04:13:00,68.2,55.1,29.57,WSW,240,7.0,9.0,63,0.00,CLR,,0.00,WeatherDisplay:10.37,2013-10-06 17:13:00,
2013-10-07 04:18:00,68.2,55.5,29.58,SW,232,2.0,7.0,64,0.00,CLR,,0.00,WeatherDisplay:10.37,2013-10-06 17:18:00,
2013-10-07 04:23:00,67.9,55.3,29.57,SSW,206,1.0,7.0,64,0.00,CLR,,0.00,WeatherDisplay:10.37,2013-10-06 17:23:00,
2013-10-07 04:28:00,67.8,55.2,29.58,SSW,208,2.0,5.0,64,0.00,CLR,,0.00,WeatherDisplay:10.37,2013-10-06 17:28:00,
2013-10-07 04:33:00,67.8,55.2,29.58,West,262,0.0,3.0,64,0.00,CLR,,0.00,WeatherDisplay:10.37,2013-10-06 17:33:00,
2013-10-07 04:38:00,67.8,55.2,29.58,SSE,149,1.0,2.0,64,0.00,CLR,,0.00,WeatherDisplay:10.37,2013-10-06 17:38:00,
2013-10-07 04:43:00,67.8,55.2,29.58,South,176,1.0,4.0,64,0.00,CLR,,0.00,WeatherDisplay:10.37,2013-10-06 17:43:00,
2013-10-07 04:48:00,67.6,55.0,29.59,SSW,206,1.0,6.0,64,0.00,CLR,,0.00,WeatherDisplay:10.37,2013-10-06 17:48:00,
2013-10-07 04:53:00,67.6,55.0,29.59,SSW,199,1.0,6.0,64,0.00,CLR,,0.00,WeatherDisplay:10.37,2013-10-06 17:53:00,
2013-10-07 04:58:00,67.5,54.9,29.59,SSW,205,0.0,6.0,64,0.00,CLR,,0.00,WeatherDisplay:10.37,2013-10-06 17:58:00,
2013-10-07 05:03:00,67.3,54.7,29.59,SSW,193,0.0,4.0,64,0.00,CLR,,0.00,WeatherDisplay:10.37,2013-10-06 18:03:00,
2013-10-07 05:08:00,67.3,54.7,29.60,SE,144,0.0,9.0,64,0.00,CLR,,0.00,WeatherDisplay:10.37,2013-10-06 18:08:00,
2013-10-07 05:13:00,67.2,54.6,29.59,SSW,198,2.0,9.0,64,0.00,CLR,,0.00,WeatherDisplay:10.37,2013-10-06 18:13:00,
2013-10-07 05:18:00,67.1,54.5,29.60,SW,215,5.0,6.0,64,0.00,CLR,,0.00,WeatherDisplay:10.37,2013-10-06 18:18:00,
2013-10-07 05:23:00,67.1,54.9,29.60,SSW,201,5.0,7.0,65,0.00,CLR,,0.00,WeatherDisplay:10.37,2013-10-06 18:23:00,
2013-10-07 05:28:00,66.9,55.2,29.60,WSW,257,7.0,9.0,66,0.00,CLR,,0.00,WeatherDisplay:10.37,2013-10-06 18:28:00,
2013-10-07 05:33:00,66.9,55.2,29.61,WSW,251,1.0,7.0,66,0.00,CLR,,0.00,WeatherDisplay:10.37,2013-10-06 18:33:00,
2013-10-07 05:38:00,66.7,55.0,29.61,SW,215,6.0,10.0,66,0.00,CLR,,0.00,WeatherDisplay:10.37,2013-10-06 18:38:00,
2013-10-07 05:43:00,66.7,55.0,29.62,SSW,211,2.0,8.0,66,0.00,CLR,,0.00,WeatherDisplay:10.37,2013-10-06 18:43:00,
2013-10-07 05:48:00,66.6,54.8,29.62,SSW,205,7.0,13.0,66,0.00,CLR,,0.00,WeatherDisplay:10.37,2013-10-06 18:48:00,
2013-10-07 05:53:00,66.4,54.3,29.62,SW,217,5.0,12.0,65,0.00,CLR,,0.00,WeatherDisplay:10.37,2013-10-06 18:53:00,
2013-10-07 05:58:00,66.2,53.7,29.63,SW,215,6.0,12.0,64,0.00,CLR,,0.00,WeatherDisplay:10.37,2013-10-06 18:58:00,
2013-10-07 06:03:00,66.0,52.6,29.63,SSW,207,5.0,10.0,62,0.00,CLR,,0.00,WeatherDisplay:10.37,2013-10-06 19:03:00,
2013-10-07 06:08:00,66.0,52.2,29.64,SSW,195,7.0,13.0,61,0.00,CLR,,0.00,WeatherDisplay:10.37,2013-10-06 19:08:00,
2013-10-07 06:13:00,66.0,51.7,29.64,South,188,3.0,9.0,60,0.00,CLR,,0.00,WeatherDisplay:10.37,2013-10-06 19:13:00,
2013-10-07 06:18:00,65.9,51.6,29.64,SSW,205,3.0,7.0,60,0.00,CLR,,0.00,WeatherDisplay:10.37,2013-10-06 19:18:00,
2013-10-07 06:23:00,65.8,51.6,29.65,SW,222,6.0,11.0,60,0.00,CLR,,0.00,WeatherDisplay:10.37,2013-10-06 19:23:00,
2013-10-07 06:28:00,65.8,51.0,29.65,SSW,210,3.0,9.0,59,0.00,CLR,,0.00,WeatherDisplay:10.37,2013-10-06 19:28:00,
2013-10-07 06:33:00,65.8,51.1,29.66,SSW,198,3.0,8.0,59,0.00,CLR,,0.00,WeatherDisplay:10.37,2013-10-06 19:33:00,
2013-10-07 06:38:00,65.7,50.9,29.66,SSW,208,5.0,8.0,59,0.00,CLR,,0.00,WeatherDisplay:10.37,2013-10-06 19:38:00,
2013-10-07 06:43:00,65.7,50.9,29.67,SW,216,2.0,6.0,59,0.00,CLR,,0.00,WeatherDisplay:10.37,2013-10-06 19:43:00,
2013-10-07 06:48:00,65.6,50.9,29.67,SW,220,3.0,8.0,59,0.00,CLR,,0.00,WeatherDisplay:10.37,2013-10-06 19:48:00,
2013-10-07 06:53:00,65.5,50.8,29.67,SSW,211,1.0,8.0,59,0.00,CLR,,0.00,WeatherDisplay:10.37,2013-10-06 19:53:00,
2013-10-07 06:58:00,65.5,50.8,29.68,SW,214,5.0,7.0,59,0.00,CLR,,0.00,WeatherDisplay:10.37,2013-10-06 19:58:00,
2013-10-07 07:03:00,65.5,50.3,29.68,SW,216,3.0,10.0,58,0.00,CLR,,0.00,WeatherDisplay:10.37,2013-10-06 20:03:00,
2013-10-07 07:08:00,65.7,50.5,29.68,SW,222,3.0,6.0,58,0.00,CLR,,0.00,WeatherDisplay:10.37,2013-10-06 20:08:00,
2013-10-07 07:13:00,65.6,50.4,29.68,SW,231,2.0,9.0,58,0.00,CLR,,0.00,WeatherDisplay:10.37,2013-10-06 20:13:00,
2013-10-07 07:18:00,65.6,50.4,29.68,SW,236,1.0,5.0,58,0.00,CLR,,0.00,WeatherDisplay:10.37,2013-10-06 20:18:00,
2013-10-07 07:23:00,65.8,50.6,29.68,WSW,242,1.0,4.0,58,0.00,CLR,,0.00,WeatherDisplay:10.37,2013-10-06 20:23:00,
2013-10-07 07:28:00,65.9,50.7,29.69,SW,230,2.0,6.0,58,0.00,CLR,,0.00,WeatherDisplay:10.37,2013-10-06 20:28:00,
2013-10-07 07:33:00,66.0,50.8,29.69,SSW,205,5.0,7.0,58,0.00,CLR,,0.00,WeatherDisplay:10.37,2013-10-06 20:33:00,
2013-10-07 07:38:00,66.0,50.8,29.69,SSW,200,1.0,7.0,58,0.00,CLR,,0.00,WeatherDisplay:10.37,2013-10-06 20:38:00,
2013-10-07 07:43:00,66.0,50.8,29.69,SW,230,2.0,10.0,58,0.00,CLR,,0.00,WeatherDisplay:10.37,2013-10-06 20:43:00,
2013-10-07 07:48:00,66.0,50.8,29.69,WSW,240,1.0,8.0,58,0.00,CLR,,0.00,WeatherDisplay:10.37,2013-10-06 20:48:00,
2013-10-07 07:53:00,66.2,51.0,29.69,WSW,244,2.0,10.0,58,0.00,CLR,,0.00,WeatherDisplay:10.37,2013-10-06 20:53:00,
2013-10-07 07:58:00,66.4,51.2,29.69,WSW,250,1.0,6.0,58,0.00,CLR,,0.00,WeatherDisplay:10.37,2013-10-06 20:58:00,
2013-10-07 08:03:00,66.6,51.3,29.69,WSW,255,1.0,4.0,58,0.00,CLR,,0.00,WeatherDisplay:10.37,2013-10-06 21:03:00,
2013-10-07 08:08:00,66.7,51.5,29.70,WSW,238,1.0,6.0,58,0.00,CLR,,0.00,WeatherDisplay:10.37,2013-10-06 21:08:00,
2013-10-07 08:13:00,67.1,51.4,29.70,SW,223,1.0,7.0,57,0.00,CLR,,0.00,WeatherDisplay:10.37,2013-10-06 21:13:00,
2013-10-07 08:18:00,67.4,51.7,29.70,SW,232,0.0,9.0,57,0.00,CLR,,0.00,WeatherDisplay:10.37,2013-10-06 21:18:00,
2013-10-07 08:23:00,67.8,52.0,29.70,WSW,248,5.0,9.0,57,0.00,CLR,,0.00,WeatherDisplay:10.37,2013-10-06 21:23:00,
2013-10-07 08:28:00,68.2,51.9,29.70,WSW,253,1.0,6.0,56,0.00,CLR,,0.00,WeatherDisplay:10.37,2013-10-06 21:28:00,
2013-10-07 08:33:00,68.6,52.2,29.70,SW,236,2.0,6.0,56,0.00,CLR,,0.00,WeatherDisplay:10.37,2013-10-06 21:33:00,
2013-10-07 08:38:00,68.9,52.6,29.70,SSW,211,0.0,11.0,56,0.00,CLR,,0.00,WeatherDisplay:10.37,2013-10-06 21:38:00,
2013-10-07 08:43:00,69.2,52.3,29.70,SW,224,5.0,8.0,55,0.00,CLR,,0.00,WeatherDisplay:10.37,2013-10-06 21:43:00,
2013-10-07 08:48:00,69.6,52.7,29.70,SW,221,7.0,12.0,55,0.00,CLR,,0.00,WeatherDisplay:10.37,2013-10-06 21:48:00,
2013-10-07 08:53:00,70.0,53.1,29.70,SW,218,2.0,8.0,55,0.00,CLR,,0.00,WeatherDisplay:10.37,2013-10-06 21:53:00,
2013-10-07 08:58:00,70.4,52.9,29.71,SW,222,2.0,7.0,54,0.00,CLR,,0.00,WeatherDisplay:10.37,2013-10-06 21:58:00,
2013-10-07 09:03:00,70.9,53.4,29.71,SSW,212,3.0,11.0,54,0.00,CLR,,0.00,WeatherDisplay:10.37,2013-10-06 22:03:00,
2013-10-07 09:08:00,71.2,53.2,29.70,SW,226,5.0,10.0,53,0.00,CLR,,0.00,WeatherDisplay:10.37,2013-10-06 22:08:00,
2013-10-07 09:13:00,71.6,53.1,29.71,SW,216,5.0,14.0,52,0.00,CLR,,0.00,WeatherDisplay:10.37,2013-10-06 22:13:00,
2013-10-07 09:18:00,71.9,53.3,29.71,SSW,192,1.0,8.0,52,0.00,CLR,,0.00,WeatherDisplay:10.37,2013-10-06 22:18:00,
2013-10-07 09:23:00,72.1,53.5,29.71,South,183,2.0,9.0,52,0.00,CLR,,0.00,WeatherDisplay:10.37,2013-10-06 22:23:00,
2013-10-07 09:28:00,72.3,53.7,29.70,SSW,208,5.0,12.0,52,0.00,CLR,,0.00,WeatherDisplay:10.37,2013-10-06 22:28:00,
2013-10-07 09:33:00,72.5,52.8,29.70,SW,214,6.0,12.0,50,0.00,CLR,,0.00,WeatherDisplay:10.37,2013-10-06 22:33:00,
2013-10-07 09:38:00,72.7,53.0,29.70,SW,214,2.0,10.0,50,0.00,CLR,,0.00,WeatherDisplay:10.37,2013-10-06 22:38:00,
2013-10-07 09:43:00,73.0,52.7,29.70,SSW,207,2.0,9.0,49,0.00,CLR,,0.00,WeatherDisplay:10.37,2013-10-06 22:43:00,
2013-10-07 09:48:00,73.2,52.9,29.70,SSW,210,7.0,13.0,49,0.00,CLR,,0.00,WeatherDisplay:10.37,2013-10-06 22:48:00,
2013-10-07 09:53:00,73.6,53.2,29.71,SW,225,6.0,10.0,49,0.00,CLR,,0.00,WeatherDisplay:10.37,2013-10-06 22:53:00,
2013-10-07 09:58:00,73.9,53.6,29.71,SW,232,5.0,11.0,49,0.00,CLR,,0.00,WeatherDisplay:10.37,2013-10-06 22:58:00,
2013-10-07 10:03:00,74.3,53.9,29.71,SW,224,5.0,15.0,49,0.00,CLR,,0.00,WeatherDisplay:10.37,2013-10-06 23:03:00,
2013-10-07 10:08:00,74.5,54.1,29.72,SW,214,6.0,16.0,49,0.00,CLR,,0.00,WeatherDisplay:10.37,2013-10-06 23:08:00,
2013-10-07 10:13:00,74.7,54.3,29.72,SW,217,6.0,16.0,49,0.00,CLR,,0.00,WeatherDisplay:10.37,2013-10-06 23:13:00,
2013-10-07 10:18:00,74.8,54.4,29.72,SSW,213,2.0,14.0,49,0.00,CLR,,0.00,WeatherDisplay:10.37,2013-10-06 23:18:00,
2013-10-07 10:23:00,75.1,54.6,29.72,SW,220,2.0,10.0,49,0.00,CLR,,0.00,WeatherDisplay:10.37,2013-10-06 23:23:00,
2013-10-07 10:28:00,75.4,55.5,29.72,SSW,208,1.0,13.0,50,0.00,CLR,,0.00,WeatherDisplay:10.37,2013-10-06 23:28:00,
2013-10-07 10:33:00,75.7,55.7,29.72,SSW,212,2.0,9.0,50,0.00,CLR,,0.00,WeatherDisplay:10.37,2013-10-06 23:33:00,
2013-10-07 10:38:00,75.6,55.6,29.72,SW,216,3.0,12.0,50,0.00,CLR,,0.00,WeatherDisplay:10.37,2013-10-06 23:38:00,
2013-10-07 10:43:00,75.4,54.9,29.73,SSW,207,3.0,13.0,49,0.00,CLR,,0.00,WeatherDisplay:10.37,2013-10-06 23:43:00,
2013-10-07 10:48:00,75.4,55.4,29.72,SSW,198,1.0,9.0,50,0.00,CLR,,0.00,WeatherDisplay:10.37,2013-10-06 23:48:00,
2013-10-07 10:53:00,75.5,55.5,29.72,SSW,194,2.0,14.0,50,0.00,CLR,,0.00,WeatherDisplay:10.37,2013-10-06 23:53:00,
2013-10-07 10:58:00,75.5,56.1,29.72,SSW,202,7.0,12.0,51,0.00,CLR,,0.00,WeatherDisplay:10.37,2013-10-06 23:58:00,
2013-10-07 11:03:00,75.9,56.5,29.73,SSW,210,8.0,12.0,51,0.00,CLR,,0.00,WeatherDisplay:10.37,2013-10-07 00:03:00,
2013-10-07 11:08:00,75.9,55.9,29.73,SW,229,2.0,10.0,50,0.00,CLR,,0.00,WeatherDisplay:10.37,2013-10-07 00:08:00,
2013-10-07 11:13:00,76.1,56.1,29.73,SW,214,6.0,10.0,50,0.00,CLR,,0.00,WeatherDisplay:10.37,2013-10-07 00:13:00,
2013-10-07 11:18:00,76.3,55.7,29.73,SW,224,2.0,9.0,49,0.00,CLR,,0.00,WeatherDisplay:10.37,2013-10-07 00:18:00,
2013-10-07 11:23:00,76.6,56.6,29.72,SW,231,9.0,18.0,50,0.00,CLR,,0.00,WeatherDisplay:10.37,2013-10-07 00:23:00,
2013-10-07 11:28:00,76.8,56.8,29.72,SW,229,2.0,16.0,50,0.00,CLR,,0.00,WeatherDisplay:10.37,2013-10-07 00:28:00,
2013-10-07 11:33:00,77.4,56.7,29.72,SW,224,3.0,14.0,49,0.00,CLR,,0.00,WeatherDisplay:10.37,2013-10-07 00:33:00,
2013-10-07 11:38:00,77.5,56.9,29.73,SSW,206,3.0,17.0,49,0.00,CLR,,0.00,WeatherDisplay:10.37,2013-10-07 00:38:00,
2013-10-07 11:43:00,77.4,56.7,29.73,SSW,211,6.0,17.0,49,0.00,CLR,,0.00,WeatherDisplay:10.37,2013-10-07 00:43:00,
2013-10-07 11:48:00,77.3,55.5,29.72,SSW,209,6.0,21.0,47,0.00,CLR,,0.00,WeatherDisplay:10.37,2013-10-07 00:48:00,
2013-10-07 11:53:00,77.4,56.1,29.72,SSW,212,7.0,9.0,48,0.00,CLR,,0.00,WeatherDisplay:10.37,2013-10-07 00:53:00,
2013-10-07 11:58:00,77.6,56.4,29.72,SW,214,7.0,14.0,48,0.00,CLR,,0.00,WeatherDisplay:10.37,2013-10-07 00:58:00,
2013-10-07 12:03:00,78.0,56.2,29.72,SSW,213,9.0,16.0,47,0.00,CLR,,0.00,WeatherDisplay:10.37,2013-10-07 01:03:00,
2013-10-07 12:08:00,78.3,55.8,29.72,SSW,206,2.0,14.0,46,0.00,CLR,,0.00,WeatherDisplay:10.37,2013-10-07 01:08:00,
2013-10-07 12:13:00,78.4,55.9,29.71,SSW,202,1.0,12.0,46,0.00,CLR,,0.00,WeatherDisplay:10.37,2013-10-07 01:13:00,
2013-10-07 12:18:00,78.3,55.8,29.71,SSW,210,7.0,15.0,46,0.00,CLR,,0.00,WeatherDisplay:10.37,2013-10-07 01:18:00,
2013-10-07 12:23:00,78.2,55.1,29.71,SW,218,7.0,15.0,45,0.00,CLR,,0.00,WeatherDisplay:10.37,2013-10-07 01:23:00,
2013-10-07 12:28:00,78.6,55.5,29.70,SW,218,6.0,16.0,45,0.00,CLR,,0.00,WeatherDisplay:10.37,2013-10-07 01:28:00,
2013-10-07 12:33:00,78.8,55.6,29.71,SW,228,2.0,18.0,45,0.00,CLR,,0.00,WeatherDisplay:10.37,2013-10-07 01:33:00,
2013-10-07 12:38:00,79.1,55.9,29.71,SW,224,2.0,5.0,45,0.00,CLR,,0.00,WeatherDisplay:10.37,2013-10-07 01:38:00,
2013-10-07 12:43:00,79.0,55.8,29.71,SSW,205,9.0,17.0,45,0.00,CLR,,0.00,WeatherDisplay:10.37,2013-10-07 01:43:00,
2013-10-07 12:48:00,78.4,55.3,29.70,SSW,194,5.0,17.0,45,0.00,CLR,,0.00,WeatherDisplay:10.37,2013-10-07 01:48:00,
2013-10-07 12:53:00,77.7,54.7,29.70,SSE,163,6.0,8.0,45,0.00,CLR,,0.00,WeatherDisplay:10.37,2013-10-07 01:53:00,
2013-10-07 12:58:00,77.4,55.0,29.70,SSE,165,5.0,12.0,46,0.00,CLR,,0.00,WeatherDisplay:10.37,2013-10-07 01:58:00,
2013-10-07 13:03:00,77.1,54.7,29.70,SSE,168,6.0,18.0,46,0.00,CLR,,0.00,WeatherDisplay:10.37,2013-10-07 02:03:00,
2013-10-07 13:08:00,76.7,54.9,29.69,SW,222,9.0,20.0,47,0.00,CLR,,0.00,WeatherDisplay:10.37,2013-10-07 02:08:00,
2013-10-07 13:13:00,76.3,55.1,29.70,SSW,201,7.0,13.0,48,0.00,CLR,,0.00,WeatherDisplay:10.37,2013-10-07 02:13:00,
2013-10-07 13:18:00,75.8,54.7,29.70,SSW,192,3.0,14.0,48,0.00,CLR,,0.00,WeatherDisplay:10.37,2013-10-07 02:18:00,
2013-10-07 13:23:00,75.6,54.5,29.70,South,191,6.0,14.0,48,0.00,CLR,,0.00,WeatherDisplay:10.37,2013-10-07 02:23:00,
2013-10-07 13:28:00,75.3,54.8,29.70,South,190,6.0,15.0,49,0.00,CLR,,0.00,WeatherDisplay:10.37,2013-10-07 02:28:00,
2013-10-07 13:33:00,75.4,54.9,29.70,SSW,207,3.0,9.0,49,0.00,CLR,,0.00,WeatherDisplay:10.37,2013-10-07 02:33:00,
2013-10-07 13:38:00,75.6,55.1,29.70,SSW,201,8.0,12.0,49,0.00,CLR,,0.00,WeatherDisplay:10.37,2013-10-07 02:38:00,
2013-10-07 13:43:00,75.7,55.2,29.70,SSW,197,5.0,20.0,49,0.00,CLR,,0.00,WeatherDisplay:10.37,2013-10-07 02:43:00,
2013-10-07 13:48:00,75.6,55.1,29.70,SW,227,8.0,20.0,49,0.00,CLR,,0.00,WeatherDisplay:10.37,2013-10-07 02:48:00,
2013-10-07 13:53:00,75.7,55.2,29.70,SW,225,8.0,12.0,49,0.00,CLR,,0.00,WeatherDisplay:10.37,2013-10-07 02:53:00,
2013-10-07 13:58:00,75.4,54.4,29.70,SW,217,6.0,12.0,48,0.00,CLR,,0.00,WeatherDisplay:10.37,2013-10-07 02:58:00,
2013-10-07 14:08:00,74.7,53.7,29.70,WNW,294,6.0,13.0,48,0.00,CLR,,0.00,WeatherDisplay:10.37,2013-10-07 03:08:00,
2013-10-07 14:13:00,74.5,54.1,29.69,SW,223,5.0,13.0,49,0.00,CLR,,0.00,WeatherDisplay:10.37,2013-10-07 03:13:00,
2013-10-07 14:18:00,74.3,54.5,29.70,SSW,195,5.0,15.0,50,0.00,CLR,,0.00,WeatherDisplay:10.37,2013-10-07 03:18:00,
2013-10-07 14:23:00,74.3,53.9,29.69,South,190,7.0,12.0,49,0.00,CLR,,0.00,WeatherDisplay:10.37,2013-10-07 03:23:00,
2013-10-07 14:28:00,74.1,53.7,29.69,SSW,194,7.0,17.0,49,0.00,CLR,,0.00,WeatherDisplay:10.37,2013-10-07 03:28:00,
2013-10-07 14:33:00,74.1,53.7,29.69,SW,225,8.0,14.0,49,0.00,CLR,,0.00,WeatherDisplay:10.37,2013-10-07 03:33:00,
2013-10-07 14:38:00,74.0,53.6,29.69,SW,217,6.0,10.0,49,0.00,CLR,,0.00,WeatherDisplay:10.37,2013-10-07 03:38:00,
2013-10-07 14:43:00,73.8,53.5,29.69,SW,232,3.0,14.0,49,0.00,CLR,,0.00,WeatherDisplay:10.37,2013-10-07 03:43:00,
2013-10-07 14:48:00,73.8,53.4,29.69,SW,221,8.0,13.0,49,0.00,CLR,,0.00,WeatherDisplay:10.37,2013-10-07 03:48:00,
2013-10-07 14:53:00,73.7,53.4,29.69,SW,218,5.0,13.0,49,0.00,CLR,,0.00,WeatherDisplay:10.37,2013-10-07 03:53:00,
2013-10-07 14:58:00,73.6,53.2,29.69,SW,217,5.0,18.0,49,0.00,CLR,,0.00,WeatherDisplay:10.37,2013-10-07 03:58:00,
2013-10-07 15:03:00,73.6,53.2,29.69,South,188,5.0,13.0,49,0.00,CLR,,0.00,WeatherDisplay:10.37,2013-10-07 04:03:00,
2013-10-07 15:08:00,73.6,53.2,29.68,SSW,194,3.0,10.0,49,0.00,CLR,,0.00,WeatherDisplay:10.37,2013-10-07 04:08:00,
2013-10-07 15:13:00,73.6,53.2,29.68,South,182,8.0,14.0,49,0.00,CLR,,0.00,WeatherDisplay:10.37,2013-10-07 04:13:00,
2013-10-07 15:18:00,73.6,53.2,29.68,South,171,5.0,14.0,49,0.00,CLR,,0.00,WeatherDisplay:10.37,2013-10-07 04:18:00,
2013-10-07 15:23:00,73.8,53.4,29.68,South,175,6.0,14.0,49,0.00,CLR,,0.00,WeatherDisplay:10.37,2013-10-07 04:23:00,
2013-10-07 15:28:00,73.8,53.4,29.68,South,170,3.0,7.0,49,0.00,CLR,,0.00,WeatherDisplay:10.37,2013-10-07 04:28:00,
2013-10-07 15:33:00,73.8,53.4,29.68,SSW,203,12.0,20.0,49,0.00,CLR,,0.00,WeatherDisplay:10.37,2013-10-07 04:33:00,
2013-10-07 15:38:00,73.9,53.6,29.69,SSW,208,5.0,14.0,49,0.00,CLR,,0.00,WeatherDisplay:10.37,2013-10-07 04:38:00,
2013-10-07 15:43:00,73.9,53.0,29.69,SSE,165,6.0,12.0,48,0.00,CLR,,0.00,WeatherDisplay:10.37,2013-10-07 04:43:00,
2013-10-07 15:48:00,74.0,53.1,29.68,SE,135,3.0,10.0,48,0.00,CLR,,0.00,WeatherDisplay:10.37,2013-10-07 04:48:00,
2013-10-07 15:53:00,74.0,53.0,29.69,South,189,3.0,11.0,48,0.00,CLR,,0.00,WeatherDisplay:10.37,2013-10-07 04:53:00,
2013-10-07 15:58:00,74.1,53.2,29.68,SW,217,6.0,12.0,48,0.00,CLR,,0.00,WeatherDisplay:10.37,2013-10-07 04:58:00,
2013-10-07 16:03:00,73.9,52.4,29.68,South,188,5.0,13.0,47,0.00,CLR,,0.00,WeatherDisplay:10.37,2013-10-07 05:03:00,
2013-10-07 16:08:00,73.6,52.1,29.68,South,178,3.0,13.0,47,0.00,CLR,,0.00,WeatherDisplay:10.37,2013-10-07 05:08:00,
2013-10-07 16:13:00,73.2,51.8,29.69,South,186,2.0,13.0,47,0.00,CLR,,0.00,WeatherDisplay:10.37,2013-10-07 05:13:00,
2013-10-07 16:18:00,72.7,51.9,29.69,South,186,6.0,12.0,48,0.00,CLR,,0.00,WeatherDisplay:10.37,2013-10-07 05:18:00,
2013-10-07 16:23:00,72.3,51.5,29.70,SSW,208,6.0,9.0,48,0.00,CLR,,0.00,WeatherDisplay:10.37,2013-10-07 05:23:00,
2013-10-07 16:28:00,72.1,51.4,29.69,SW,228,3.0,10.0,48,0.00,CLR,,0.00,WeatherDisplay:10.37,2013-10-07 05:28:00,
2013-10-07 16:33:00,71.8,51.6,29.70,SSW,211,3.0,10.0,49,0.00,CLR,,0.00,WeatherDisplay:10.37,2013-10-07 05:33:00,
2013-10-07 16:38:00,71.4,51.3,29.70,South,184,2.0,8.0,49,0.00,CLR,,0.00,WeatherDisplay:10.37,2013-10-07 05:38:00,
2013-10-07 16:58:00,70.4,50.9,29.70,SSW,207,9.0,21.0,50,0.00,CLR,,0.00,WeatherDisplay:10.37,2013-10-07 05:58:00,
2013-10-07 17:03:00,70.5,51.0,29.70,SSW,205,6.0,13.0,50,0.00,CLR,,0.00,WeatherDisplay:10.37,2013-10-07 06:03:00,
2013-10-07 17:08:00,70.5,51.0,29.70,SSW,203,8.0,15.0,50,0.00,CLR,,0.00,WeatherDisplay:10.37,2013-10-07 06:08:00,
2013-10-07 17:13:00,70.7,51.1,29.70,South,189,2.0,12.0,50,0.00,CLR,,0.00,WeatherDisplay:10.37,2013-10-07 06:13:00,
2013-10-07 17:18:00,70.7,51.1,29.69,SSW,194,5.0,15.0,50,0.00,CLR,,0.00,WeatherDisplay:10.37,2013-10-07 06:18:00,
2013-10-07 17:23:00,70.7,51.1,29.69,SSW,196,3.0,8.0,50,0.00,CLR,,0.00,WeatherDisplay:10.37,2013-10-07 06:23:00,
2013-10-07 17:28:00,70.5,51.0,29.69,SSW,208,5.0,14.0,50,0.00,CLR,,0.00,WeatherDisplay:10.37,2013-10-07 06:28:00,
2013-10-07 17:33:00,70.5,51.0,29.69,SSW,206,5.0,13.0,50,0.00,CLR,,0.00,WeatherDisplay:10.37,2013-10-07 06:33:00,
2013-10-07 17:38:00,70.4,50.8,29.69,SSW,202,5.0,12.0,50,0.00,CLR,,0.00,WeatherDisplay:10.37,2013-10-07 06:38:00,
2013-10-07 17:43:00,70.3,50.8,29.70,SSW,201,5.0,16.0,50,0.00,CLR,,0.00,WeatherDisplay:10.37,2013-10-07 06:43:00,
2013-10-07 17:48:00,70.2,50.7,29.70,SSW,192,5.0,9.0,50,0.00,CLR,,0.00,WeatherDisplay:10.37,2013-10-07 06:48:00,
2013-10-07 17:53:00,69.8,50.3,29.70,SSW,198,3.0,9.0,50,0.00,CLR,,0.00,WeatherDisplay:10.37,2013-10-07 06:53:00,
2013-10-07 17:58:00,69.6,50.2,29.70,SSW,208,5.0,13.0,50,0.00,CLR,,0.00,WeatherDisplay:10.37,2013-10-07 06:58:00,
2013-10-07 18:03:00,69.6,50.6,29.70,SSW,204,2.0,7.0,51,0.00,CLR,,0.00,WeatherDisplay:10.37,2013-10-07 07:03:00,
2013-10-07 18:08:00,69.4,50.5,29.70,SSW,202,2.0,7.0,51,0.00,CLR,,0.00,WeatherDisplay:10.37,2013-10-07 07:08:00,
2013-10-07 18:13:00,69.4,50.5,29.71,South,186,9.0,13.0,51,0.00,CLR,,0.00,WeatherDisplay:10.37,2013-10-07 07:13:00,
2013-10-07 18:18:00,69.2,50.3,29.70,South,190,6.0,15.0,51,0.00,CLR,,0.00,WeatherDisplay:10.37,2013-10-07 07:18:00,
2013-10-07 18:23:00,69.2,50.3,29.71,SSW,204,2.0,15.0,51,0.00,CLR,,0.00,WeatherDisplay:10.37,2013-10-07 07:23:00,
2013-10-07 18:28:00,68.9,50.0,29.71,South,186,2.0,7.0,51,0.00,CLR,,0.00,WeatherDisplay:10.37,2013-10-07 07:28:00,
2013-10-07 18:33:00,68.9,50.0,29.71,SSW,199,2.0,6.0,51,0.00,CLR,,0.00,WeatherDisplay:10.37,2013-10-07 07:33:00,
2013-10-07 18:38:00,68.7,49.9,29.71,SSW,209,3.0,9.0,51,0.00,CLR,,0.00,WeatherDisplay:10.37,2013-10-07 07:38:00,
2013-10-07 18:43:00,68.7,49.9,29.71,SSW,201,3.0,7.0,51,0.00,CLR,,0.00,WeatherDisplay:10.37,2013-10-07 07:43:00,
2013-10-07 18:48:00,68.5,49.7,29.72,South,187,3.0,9.0,51,0.00,CLR,,0.00,WeatherDisplay:10.37,2013-10-07 07:48:00,
2013-10-07 18:53:00,68.5,49.6,29.72,South,188,2.0,7.0,51,0.00,CLR,,0.00,WeatherDisplay:10.37,2013-10-07 07:53:00,
2013-10-07 19:03:00,68.2,49.9,29.72,SSW,199,3.0,10.0,52,0.00,CLR,,0.00,WeatherDisplay:10.37,2013-10-07 08:03:00,
2013-10-07 19:08:00,67.8,49.5,29.73,SSW,206,2.0,9.0,52,0.00,CLR,,0.00,WeatherDisplay:10.37,2013-10-07 08:08:00,
2013-10-07 19:13:00,67.8,49.5,29.73,South,190,2.0,6.0,52,0.00,CLR,,0.00,WeatherDisplay:10.37,2013-10-07 08:13:00,
2013-10-07 19:18:00,67.7,50.0,29.73,South,175,1.0,6.0,53,0.00,CLR,,0.00,WeatherDisplay:10.37,2013-10-07 08:18:00,
2013-10-07 19:23:00,67.6,49.9,29.74,SSW,209,3.0,7.0,53,0.00,CLR,,0.00,WeatherDisplay:10.37,2013-10-07 08:23:00,
2013-10-07 19:28:00,67.4,50.2,29.74,SSW,199,1.0,6.0,54,0.00,CLR,,0.00,WeatherDisplay:10.37,2013-10-07 08:28:00,
2013-10-07 19:33:00,67.3,50.6,29.75,South,187,3.0,8.0,55,0.00,CLR,,0.00,WeatherDisplay:10.37,2013-10-07 08:33:00,
2013-10-07 19:38:00,67.3,50.6,29.75,WSW,238,0.0,9.0,55,0.00,CLR,,0.00,WeatherDisplay:10.37,2013-10-07 08:38:00,
2013-10-07 19:43:00,67.1,50.4,29.75,SW,234,1.0,9.0,55,0.00,CLR,,0.00,WeatherDisplay:10.37,2013-10-07 08:43:00,
2013-10-07 19:48:00,67.1,50.4,29.75,SSW,195,1.0,7.0,55,0.00,CLR,,0.00,WeatherDisplay:10.37,2013-10-07 08:48:00,
2013-10-07 19:53:00,67.1,50.4,29.75,SSW,196,3.0,11.0,55,0.00,CLR,,0.00,WeatherDisplay:10.37,2013-10-07 08:53:00,
2013-10-07 19:58:00,67.1,50.4,29.76,SSW,202,3.0,7.0,55,0.00,CLR,,0.00,WeatherDisplay:10.37,2013-10-07 08:58:00,
2013-10-07 20:03:00,67.0,50.3,29.76,SSW,201,1.0,3.0,55,0.00,CLR,,0.00,WeatherDisplay:10.37,2013-10-07 09:03:00,
2013-10-07 20:08:00,66.9,50.2,29.76,South,185,1.0,5.0,55,0.00,CLR,,0.00,WeatherDisplay:10.37,2013-10-07 09:08:00,
2013-10-07 20:13:00,66.9,50.2,29.76,SSW,205,1.0,4.0,55,0.00,CLR,,0.00,WeatherDisplay:10.37,2013-10-07 09:13:00,
2013-10-07 20:18:00,66.9,50.7,29.77,South,188,1.0,4.0,56,0.00,CLR,,0.00,WeatherDisplay:10.37,2013-10-07 09:18:00,
2013-10-07 20:23:00,66.9,50.7,29.77,South,179,2.0,7.0,56,0.00,CLR,,0.00,WeatherDisplay:10.37,2013-10-07 09:23:00,
2013-10-07 20:28:00,66.9,50.7,29.77,South,177,2.0,7.0,56,0.00,CLR,,0.00,WeatherDisplay:10.37,2013-10-07 09:28:00,
2013-10-07 20:33:00,66.9,50.7,29.77,South,178,1.0,7.0,56,0.00,CLR,,0.00,WeatherDisplay:10.37,2013-10-07 09:33:00,
2013-10-07 20:38:00,66.9,50.7,29.77,SSE,159,3.0,5.0,56,0.00,CLR,,0.00,WeatherDisplay:10.37,2013-10-07 09:38:00,
2013-10-07 20:43:00,66.9,50.7,29.77,SSE,151,1.0,5.0,56,0.00,CLR,,0.00,WeatherDisplay:10.37,2013-10-07 09:43:00,
2013-10-07 20:48:00,66.9,50.7,29.77,SSE,147,1.0,5.0,56,0.00,CLR,,0.00,WeatherDisplay:10.37,2013-10-07 09:48:00,
2013-10-07 20:53:00,66.8,50.6,29.77,East,82,0.0,5.0,56,0.00,CLR,,0.00,WeatherDisplay:10.37,2013-10-07 09:53:00,
2013-10-07 20:58:00,66.8,50.6,29.78,SSW,200,1.0,6.0,56,0.00,CLR,,0.00,WeatherDisplay:10.37,2013-10-07 09:58:00,
2013-10-07 21:03:00,66.7,50.5,29.78,South,179,0.0,3.0,56,0.00,CLR,,0.00,WeatherDisplay:10.37,2013-10-07 10:03:00,
2013-10-07 21:08:00,66.8,50.6,29.78,South,179,0.0,3.0,56,0.00,CLR,,0.00,WeatherDisplay:10.37,2013-10-07 10:08:00,
2013-10-07 21:18:00,66.7,50.5,29.78,South,190,2.0,4.0,56,0.00,CLR,,0.00,WeatherDisplay:10.37,2013-10-07 10:18:00,
2013-10-07 21:23:00,66.7,51.0,29.78,South,173,0.0,3.0,57,0.00,CLR,,0.00,WeatherDisplay:10.37,2013-10-07 10:23:00,
2013-10-07 21:28:00,66.7,51.0,29.78,South,170,1.0,4.0,57,0.00,CLR,,0.00,WeatherDisplay:10.37,2013-10-07 10:28:00,
2013-10-07 21:33:00,66.7,51.0,29.78,South,186,0.0,5.0,57,0.00,CLR,,0.00,WeatherDisplay:10.37,2013-10-07 10:33:00,
2013-10-07 21:38:00,66.7,51.0,29.78,SSE,149,0.0,3.0,57,0.00,CLR,,0.00,WeatherDisplay:10.37,2013-10-07 10:38:00,
2013-10-07 21:43:00,66.7,51.5,29.79,SE,131,1.0,5.0,58,0.00,CLR,,0.00,WeatherDisplay:10.37,2013-10-07 10:43:00,
2013-10-07 21:48:00,66.7,51.5,29.78,ESE,115,0.0,5.0,58,0.00,CLR,,0.00,WeatherDisplay:10.37,2013-10-07 10:48:00,
2013-10-07 21:53:00,66.7,51.0,29.79,ESE,107,1.0,3.0,57,0.00,CLR,,0.00,WeatherDisplay:10.37,2013-10-07 10:53:00,
2013-10-07 22:03:00,66.6,51.3,29.79,ESE,114,1.0,4.0,58,0.00,CLR,,0.00,WeatherDisplay:10.37,2013-10-07 11:03:00,
2013-10-07 22:08:00,66.6,51.3,29.79,ESE,122,0.0,3.0,58,0.00,CLR,,0.00,WeatherDisplay:10.37,2013-10-07 11:08:00,
2013-10-07 22:13:00,66.4,51.2,29.78,SE,124,0.0,2.0,58,0.00,CLR,,0.00,WeatherDisplay:10.37,2013-10-07 11:13:00,
2013-10-07 22:18:00,66.4,51.2,29.79,SE,130,0.0,3.0,58,0.00,CLR,,0.00,WeatherDisplay:10.37,2013-10-07 11:18:00,
2013-10-07 22:23:00,66.4,51.2,29.79,SE,133,1.0,6.0,58,0.00,CLR,,0.00,WeatherDisplay:10.37,2013-10-07 11:23:00,
2013-10-07 22:28:00,66.4,51.2,29.79,SE,146,0.0,1.0,58,0.00,CLR,,0.00,WeatherDisplay:10.37,2013-10-07 11:28:00,
2013-10-07 22:33:00,66.4,51.2,29.78,South,182,0.0,2.0,58,0.00,CLR,,0.00,WeatherDisplay:10.37,2013-10-07 11:33:00,
2013-10-07 22:38:00,66.4,51.2,29.79,South,178,0.0,2.0,58,0.00,CLR,,0.00,WeatherDisplay:10.37,2013-10-07 11:38:00,
2013-10-07 22:43:00,66.4,51.2,29.79,ENE,75,0.0,0.0,58,0.00,CLR,,0.00,WeatherDisplay:10.37,2013-10-07 11:43:00,
2013-10-07 22:48:00,66.2,51.0,29.79,SSE,168,3.0,6.0,58,0.00,CLR,,0.00,WeatherDisplay:10.37,2013-10-07 11:48:00,
2013-10-07 22:53:00,66.0,51.3,29.78,SSE,166,0.0,5.0,59,0.00,CLR,,0.00,WeatherDisplay:10.37,2013-10-07 11:53:00,
2013-10-07 22:58:00,66.0,51.3,29.78,East,83,1.0,3.0,59,0.00,CLR,,0.00,WeatherDisplay:10.37,2013-10-07 11:58:00,
2013-10-07 23:03:00,66.0,51.3,29.78,SE,143,0.0,3.0,59,0.00,CLR,,0.00,WeatherDisplay:10.37,2013-10-07 12:03:00,
2013-10-07 23:08:00,66.0,51.3,29.78,SSE,166,0.0,2.0,59,0.00,CLR,,0.00,WeatherDisplay:10.37,2013-10-07 12:08:00,
2013-10-07 23:13:00,65.9,51.2,29.78,SE,127,0.0,2.0,59,0.00,CLR,,0.00,WeatherDisplay:10.37,2013-10-07 12:13:00,
2013-10-07 23:18:00,65.8,51.1,29.78,East,90,0.0,0.0,59,0.00,CLR,,0.00,WeatherDisplay:10.37,2013-10-07 12:18:00,
2013-10-07 23:23:00,65.9,51.2,29.78,ENE,64,1.0,2.0,59,0.00,CLR,,0.00,WeatherDisplay:10.37,2013-10-07 12:23:00,
2013-10-07 23:28:00,65.9,51.2,29.78,ESE,103,0.0,0.0,59,0.00,CLR,,0.00,WeatherDisplay:10.37,2013-10-07 12:28:00,
2013-10-07 23:33:00,66.0,51.3,29.78,ESE,121,0.0,2.0,59,0.00,CLR,,0.00,WeatherDisplay:10.37,2013-10-07 12:33:00,
2013-10-07 23:38:00,65.8,51.6,29.78,East,96,0.0,0.0,60,0.00,CLR,,0.00,WeatherDisplay:10.37,2013-10-07 12:38:00,
2013-10-07 23:43:00,65.9,51.6,29.78,ESE,122,0.0,2.0,60,0.00,CLR,,0.00,WeatherDisplay:10.37,2013-10-07 12:43:00,
2013-10-07 23:48:00,65.8,51.6,29.78,South,186,0.0,1.0,60,0.00,CLR,,0.00,WeatherDisplay:10.37,2013-10-07 12:48:00,
2013-10-07 23:53:00,65.8,51.6,29.78,SSE,151,0.0,0.0,60,0.00,CLR,,0.00,WeatherDisplay:10.37,2013-10-07 12:53:00,
2013-10-07 23:58:00,65.8,51.6,29.78,ESE,116,0.0,0.0,60,0.00,CLR,,0.00,WeatherDisplay:10.37,2013-10-07 12:58:00,